createdAt,value
2023-05-18T00:01:12.981Z,4.10
2023-05-18T00:03:40.376Z,4.21
2023-05-18T00:06:07.850Z,4.22
2023-05-18T00:08:37.815Z,4.26
2023-05-18T00:11:06.126Z,4.25
2023-05-18T00:13:33.715Z,4.22
2023-05-18T00:16:01.108Z,4.24
2023-05-18T00:18:28.543Z,4.20
2023-05-18T00:20:56.004Z,4.13
2023-05-18T00:23:23.230Z,4.10
2023-05-18T00:25:51.797Z,4.10
2023-05-18T00:28:19.004Z,4.05
2023-05-18T00:30:46.366Z,4.05
2023-05-18T00:33:13.551Z,4.03
2023-05-18T00:35:40.734Z,3.99
2023-05-18T00:38:08.100Z,3.95
2023-05-18T00:40:35.312Z,3.92
2023-05-18T00:43:03.933Z,3.93
2023-05-18T00:45:31.595Z,3.92
2023-05-18T00:47:59.065Z,3.90
2023-05-18T00:50:26.484Z,3.86
2023-05-18T00:52:53.775Z,3.81
2023-05-18T00:55:21.112Z,3.73
2023-05-18T00:57:48.446Z,3.68
2023-05-18T01:00:17.265Z,3.59
2023-05-18T01:02:44.568Z,3.49
2023-05-18T01:05:12.897Z,3.44
2023-05-18T01:07:40.827Z,3.36
2023-05-18T01:10:09.079Z,3.25
2023-05-18T01:12:41.193Z,3.16
2023-05-18T01:15:13.232Z,3.14
2023-05-18T01:17:50.996Z,3.05
2023-05-18T01:20:27.804Z,3.07
2023-05-18T01:23:29.823Z,3.08
2023-05-18T01:26:14.859Z,3.10
2023-05-18T01:28:45.477Z,3.10
2023-05-18T01:31:14.472Z,3.10
2023-05-18T01:33:42.165Z,3.08
2023-05-18T01:36:10.080Z,3.04
2023-05-18T01:38:38.712Z,3.02
2023-05-18T01:41:14.668Z,3.04
2023-05-18T01:43:55.626Z,3.05
2023-05-18T01:46:34.684Z,3.02
2023-05-18T01:49:08.219Z,2.98
2023-05-18T01:51:41.230Z,2.99
2023-05-18T01:54:11.361Z,3.02
2023-05-18T01:56:39.919Z,2.98
2023-05-18T01:59:08.696Z,3.00
2023-05-18T02:01:36.590Z,3.02
2023-05-18T02:04:08.102Z,2.97
2023-05-18T02:06:35.502Z,2.99
2023-05-18T02:09:02.868Z,2.98
2023-05-18T02:11:30.274Z,2.95
2023-05-18T02:13:58.299Z,2.92
2023-05-18T02:16:27.102Z,2.91
2023-05-18T02:18:54.298Z,2.89
2023-05-18T02:21:22.984Z,2.86
2023-05-18T02:23:50.210Z,2.85
2023-05-18T02:26:17.427Z,2.83
2023-05-18T02:28:50.239Z,2.80
2023-05-18T02:31:17.622Z,2.77
2023-05-18T02:33:46.285Z,2.74
2023-05-18T02:36:14.411Z,2.75
2023-05-18T02:38:43.533Z,2.77
2023-05-18T02:41:11.483Z,2.77
2023-05-18T02:43:38.793Z,2.76
2023-05-18T02:46:07.702Z,2.78
2023-05-18T02:48:34.993Z,2.72
2023-05-18T02:51:03.757Z,2.71
2023-05-18T02:53:31.524Z,2.76
2023-05-18T02:56:04.288Z,2.75
2023-05-18T02:58:41.423Z,2.87
2023-05-18T03:01:13.362Z,2.83
2023-05-18T03:03:47.107Z,2.95
2023-05-18T03:06:16.852Z,2.95
2023-05-18T03:08:45.066Z,3.11
2023-05-18T03:11:13.480Z,3.04
2023-05-18T03:13:40.887Z,3.13
2023-05-18T03:16:08.087Z,3.14
2023-05-18T03:18:35.443Z,3.15
2023-05-18T03:21:02.886Z,3.42
2023-05-18T03:23:31.983Z,3.62
2023-05-18T03:25:59.206Z,3.55
2023-05-18T03:28:28.636Z,3.58
2023-05-18T03:30:55.970Z,3.60
2023-05-18T03:33:23.321Z,3.62
2023-05-18T03:35:50.634Z,3.53
2023-05-18T03:38:17.927Z,3.46
2023-05-18T03:40:51.667Z,3.38
2023-05-18T03:43:18.906Z,3.32
2023-05-18T03:45:47.296Z,3.28
2023-05-18T03:48:14.643Z,3.11
2023-05-18T03:50:42.001Z,3.33
2023-05-18T03:53:09.309Z,3.33
2023-05-18T03:55:36.543Z,3.39
2023-05-18T03:58:05.155Z,3.54
2023-05-18T04:00:32.395Z,3.48
2023-05-18T04:02:59.628Z,3.49
2023-05-18T04:05:26.873Z,3.41
2023-05-18T04:07:54.054Z,3.33
2023-05-18T04:10:21.438Z,3.36
2023-05-18T04:12:48.713Z,3.27
2023-05-18T04:15:18.478Z,3.28
2023-05-18T04:17:46.142Z,3.29
2023-05-18T04:20:13.700Z,3.40
2023-05-18T04:22:41.611Z,3.47
2023-05-18T04:25:09.559Z,3.48
2023-05-18T04:27:36.838Z,3.60
2023-05-18T04:30:04.774Z,3.51
2023-05-18T04:32:33.444Z,3.63
2023-05-18T04:35:00.696Z,3.72
2023-05-18T04:37:28.026Z,3.90
2023-05-18T04:39:55.268Z,3.95
2023-05-18T04:42:23.014Z,4.07
2023-05-18T04:44:50.621Z,4.29
2023-05-18T04:47:17.997Z,4.49
2023-05-18T04:49:46.665Z,4.61
2023-05-18T04:52:13.912Z,4.72
2023-05-18T04:54:41.152Z,4.82
2023-05-18T04:57:08.835Z,5.01
2023-05-18T04:59:36.068Z,5.24
2023-05-18T05:02:05.114Z,5.45
2023-05-18T05:04:32.489Z,5.47
2023-05-18T05:07:01.138Z,5.62
2023-05-18T05:09:28.344Z,5.47
2023-05-18T05:11:55.558Z,5.62
2023-05-18T05:14:23.678Z,5.75
2023-05-18T05:16:50.989Z,5.78
2023-05-18T05:19:18.262Z,6.01
2023-05-18T05:21:45.458Z,6.14
2023-05-18T05:24:14.157Z,6.27
2023-05-18T05:26:41.480Z,6.50
2023-05-18T05:29:08.754Z,6.52
2023-05-18T05:31:36.024Z,6.72
2023-05-18T05:34:03.286Z,6.87
2023-05-18T05:36:30.488Z,6.79
2023-05-18T05:38:57.739Z,7.20
2023-05-18T05:41:26.425Z,7.45
2023-05-18T05:43:53.708Z,7.50
2023-05-18T05:46:21.263Z,7.77
2023-05-18T05:48:48.517Z,8.05
2023-05-18T05:51:16.804Z,8.27
2023-05-18T05:53:44.029Z,8.34
2023-05-18T05:56:11.307Z,8.44
2023-05-18T05:58:42.463Z,8.88
2023-05-18T06:01:09.859Z,8.76
2023-05-18T06:03:37.173Z,8.78
2023-05-18T06:06:06.615Z,9.05
2023-05-18T06:08:33.862Z,9.11
2023-05-18T06:11:01.106Z,9.32
2023-05-18T06:13:28.346Z,9.45
2023-05-18T06:15:58.532Z,9.74
2023-05-18T06:18:25.902Z,9.81
2023-05-18T06:20:57.171Z,9.87
2023-05-18T06:23:24.507Z,10.34
2023-05-18T06:26:03.786Z,10.40
2023-05-18T06:28:33.704Z,10.35
2023-05-18T06:31:34.830Z,10.34
2023-05-18T06:34:09.259Z,9.82
2023-05-18T06:36:36.532Z,10.62
2023-05-18T06:39:03.952Z,11.12
2023-05-18T06:41:31.258Z,10.78
2023-05-18T06:43:58.719Z,11.08
2023-05-18T06:46:31.019Z,11.43
2023-05-18T06:49:02.835Z,11.40
2023-05-18T06:51:30.485Z,11.28
2023-05-18T06:53:58.543Z,11.18
2023-05-18T06:56:26.506Z,11.77
2023-05-18T06:58:54.864Z,11.40
2023-05-18T07:01:22.162Z,11.63
2023-05-18T07:03:49.565Z,12.02
2023-05-18T07:06:18.290Z,11.84
2023-05-18T07:08:45.473Z,12.00
2023-05-18T07:11:12.675Z,11.73
2023-05-18T07:13:39.878Z,12.37
2023-05-18T07:16:07.227Z,12.71
2023-05-18T07:18:34.524Z,12.17
2023-05-18T07:21:01.824Z,11.94
2023-05-18T07:23:30.348Z,12.42
2023-05-18T07:25:57.638Z,12.86
2023-05-18T07:28:25.058Z,13.22
2023-05-18T07:30:52.468Z,13.49
2023-05-18T07:33:19.809Z,13.83
2023-05-18T07:35:47.064Z,14.26
2023-05-18T07:38:14.237Z,14.35
2023-05-18T07:40:42.843Z,13.81
2023-05-18T07:43:10.030Z,13.86
2023-05-18T07:45:37.300Z,14.07
2023-05-18T07:48:04.565Z,14.31
2023-05-18T07:50:31.870Z,14.55
2023-05-18T07:52:59.092Z,14.31
2023-05-18T07:55:26.345Z,13.60
2023-05-18T07:57:54.918Z,13.26
2023-05-18T08:00:22.284Z,13.21
2023-05-18T08:02:49.714Z,13.00
2023-05-18T08:05:17.125Z,13.67
2023-05-18T08:07:44.406Z,13.70
2023-05-18T08:10:11.653Z,13.83
2023-05-18T08:12:38.962Z,13.79
2023-05-18T08:15:09.223Z,13.88
2023-05-18T08:17:36.454Z,13.85
2023-05-18T08:20:04.326Z,14.40
2023-05-18T08:22:31.566Z,14.85
2023-05-18T08:24:58.790Z,15.24
2023-05-18T08:27:26.008Z,14.61
2023-05-18T08:29:53.206Z,14.71
2023-05-18T08:32:21.886Z,15.38
2023-05-18T08:34:49.153Z,15.27
2023-05-18T08:37:16.386Z,15.52
2023-05-18T08:39:43.637Z,16.04
2023-05-18T08:42:17.922Z,15.80
2023-05-18T08:44:50.031Z,15.89
2023-05-18T08:47:17.340Z,16.02
2023-05-18T08:49:51.538Z,15.41
2023-05-18T08:52:22.194Z,14.80
2023-05-18T08:54:52.569Z,15.51
2023-05-18T08:57:22.067Z,16.25
2023-05-18T08:59:52.187Z,16.22
2023-05-18T09:02:19.533Z,15.73
2023-05-18T09:04:48.503Z,16.20
2023-05-18T09:07:17.171Z,16.47
2023-05-18T09:09:46.239Z,16.40
2023-05-18T09:12:14.680Z,17.03
2023-05-18T09:14:43.202Z,16.46
2023-05-18T09:17:10.809Z,16.61
2023-05-18T09:19:38.010Z,16.44
2023-05-18T09:22:06.757Z,16.04
2023-05-18T09:24:34.136Z,15.54
2023-05-18T09:27:01.613Z,15.63
2023-05-18T09:29:29.460Z,16.66
2023-05-18T09:31:57.574Z,17.02
2023-05-18T09:34:24.831Z,17.24
2023-05-18T09:36:52.148Z,17.92
2023-05-18T09:39:20.718Z,18.26
2023-05-18T09:41:55.292Z,18.44
2023-05-18T09:44:31.318Z,18.70
2023-05-18T09:46:58.672Z,17.46
2023-05-18T09:49:25.932Z,17.16
2023-05-18T09:51:53.131Z,17.55
2023-05-18T09:54:24.218Z,18.26
2023-05-18T09:57:02.327Z,18.41
2023-05-18T09:59:37.246Z,17.26
2023-05-18T10:02:05.264Z,18.03
2023-05-18T10:04:36.795Z,18.63
2023-05-18T10:07:09.454Z,19.05
2023-05-18T10:09:39.001Z,19.35
2023-05-18T10:12:11.102Z,17.77
2023-05-18T10:14:39.791Z,17.12
2023-05-18T10:17:15.085Z,17.48
2023-05-18T10:19:45.126Z,17.77
2023-05-18T10:22:15.540Z,17.16
2023-05-18T10:24:50.048Z,17.18
2023-05-18T10:27:20.063Z,17.51
2023-05-18T10:29:48.220Z,18.34
2023-05-18T10:32:17.206Z,19.04
2023-05-18T10:34:45.002Z,19.02
2023-05-18T10:37:14.282Z,19.11
2023-05-18T10:39:44.096Z,18.50
2023-05-18T10:42:14.278Z,18.14
2023-05-18T10:44:41.870Z,17.12
2023-05-18T10:47:11.366Z,17.21
2023-05-18T10:49:40.209Z,17.40
2023-05-18T10:52:08.855Z,17.49
2023-05-18T10:54:37.050Z,18.30
2023-05-18T10:57:07.000Z,17.21
2023-05-18T10:59:34.916Z,17.35
2023-05-18T11:02:03.374Z,17.38
2023-05-18T11:04:31.521Z,16.78
2023-05-18T11:06:59.755Z,16.89
2023-05-18T11:09:28.866Z,16.74
2023-05-18T11:11:58.486Z,16.97
2023-05-18T11:14:28.515Z,17.06
2023-05-18T11:17:20.329Z,16.78
2023-05-18T11:20:12.956Z,17.08
2023-05-18T11:22:42.144Z,17.23
2023-05-18T11:25:09.768Z,17.90
2023-05-18T11:27:37.767Z,16.96
2023-05-18T11:30:27.235Z,17.77
2023-05-18T11:33:09.174Z,17.90
2023-05-18T11:35:54.863Z,18.56
2023-05-18T11:38:22.287Z,17.59
2023-05-18T11:40:50.752Z,18.75
2023-05-18T11:43:20.652Z,19.14
2023-05-18T11:45:59.568Z,18.10
2023-05-18T11:48:27.798Z,18.50
2023-05-18T11:50:56.295Z,19.15
2023-05-18T11:53:24.442Z,18.87
2023-05-18T11:55:52.602Z,19.26
2023-05-18T11:58:19.962Z,19.92
2023-05-18T12:00:48.789Z,19.61
2023-05-18T12:03:19.107Z,19.87
2023-05-18T12:05:46.731Z,20.16
2023-05-18T12:08:17.372Z,19.49
2023-05-18T12:10:45.475Z,20.05
2023-05-18T12:13:13.576Z,20.16
2023-05-18T12:15:42.074Z,19.12
2023-05-18T12:18:09.393Z,18.93
2023-05-18T12:20:39.391Z,19.46
2023-05-18T12:23:06.658Z,18.88
2023-05-18T12:25:34.171Z,18.59
2023-05-18T12:28:01.589Z,17.87
2023-05-18T12:30:29.047Z,17.96
2023-05-18T12:32:57.168Z,18.00
2023-05-18T12:35:25.469Z,18.83
2023-05-18T12:37:55.224Z,18.73
2023-05-18T12:40:22.892Z,19.27
2023-05-18T12:42:53.750Z,19.20
2023-05-18T12:45:23.758Z,17.60
2023-05-18T12:47:51.452Z,17.46
2023-05-18T12:50:19.036Z,17.48
2023-05-18T12:52:47.330Z,17.40
2023-05-18T12:55:18.383Z,17.93
2023-05-18T12:57:45.584Z,18.59
2023-05-18T13:00:13.675Z,18.59
2023-05-18T13:02:41.037Z,18.68
2023-05-18T13:05:10.324Z,18.24
2023-05-18T13:07:39.658Z,18.80
2023-05-18T13:10:09.348Z,19.57
2023-05-18T13:12:41.110Z,20.17
2023-05-18T13:15:10.154Z,20.24
2023-05-18T13:17:39.695Z,19.86
2023-05-18T13:20:12.914Z,19.05
2023-05-18T13:22:40.134Z,18.52
2023-05-18T13:25:08.452Z,18.65
2023-05-18T13:27:35.760Z,18.31
2023-05-18T13:30:05.499Z,18.29
2023-05-18T13:32:33.692Z,17.58
2023-05-18T13:35:00.949Z,17.78
2023-05-18T13:37:28.146Z,18.38
2023-05-18T13:39:55.405Z,18.29
2023-05-18T13:42:22.624Z,18.19
2023-05-18T13:44:49.829Z,18.05
2023-05-18T13:47:18.391Z,18.16
2023-05-18T13:49:45.598Z,18.24
2023-05-18T13:52:12.895Z,18.24
2023-05-18T13:54:40.085Z,17.46
2023-05-18T13:57:08.133Z,18.45
2023-05-18T13:59:35.504Z,18.31
2023-05-18T14:02:02.806Z,17.76
2023-05-18T14:04:31.496Z,18.14
2023-05-18T14:06:58.748Z,18.06
2023-05-18T14:09:26.033Z,18.76
2023-05-18T14:11:53.869Z,18.19
2023-05-18T14:14:21.220Z,18.49
2023-05-18T14:16:48.570Z,19.06
2023-05-18T14:19:15.865Z,19.18
2023-05-18T14:21:44.514Z,18.95
2023-05-18T14:24:11.740Z,19.11
2023-05-18T14:26:39.010Z,18.28
2023-05-18T14:29:06.222Z,18.69
2023-05-18T14:31:33.526Z,18.76
2023-05-18T14:34:00.918Z,18.89
2023-05-18T14:36:28.170Z,19.24
2023-05-18T14:38:56.771Z,19.27
2023-05-18T14:41:23.976Z,19.61
2023-05-18T14:43:51.191Z,19.26
2023-05-18T14:46:18.587Z,19.56
2023-05-18T14:48:45.845Z,19.75
2023-05-18T14:51:13.177Z,19.97
2023-05-18T14:53:40.362Z,21.05
2023-05-18T14:56:09.144Z,20.84
2023-05-18T14:58:36.556Z,20.87
2023-05-18T15:01:03.836Z,20.63
2023-05-18T15:03:31.160Z,21.52
2023-05-18T15:05:58.464Z,20.32
2023-05-18T15:08:25.774Z,19.77
2023-05-18T15:10:53.042Z,19.81
2023-05-18T15:13:21.631Z,20.34
2023-05-18T15:15:49.237Z,20.22
2023-05-18T15:18:16.680Z,19.78
2023-05-18T15:20:43.921Z,20.04
2023-05-18T15:23:11.174Z,20.41
2023-05-18T15:25:38.931Z,19.86
2023-05-18T15:28:06.802Z,19.95
2023-05-18T15:30:35.432Z,19.46
2023-05-18T15:33:02.934Z,19.53
2023-05-18T15:35:30.174Z,19.29
2023-05-18T15:37:57.574Z,19.25
2023-05-18T15:40:24.983Z,18.94
2023-05-18T15:42:52.198Z,18.05
2023-05-18T15:45:19.422Z,18.63
2023-05-18T15:47:48.098Z,19.23
2023-05-18T15:50:15.393Z,19.49
2023-05-18T15:52:42.832Z,19.61
2023-05-18T15:55:10.689Z,19.61
2023-05-18T15:57:38.161Z,19.89
2023-05-18T16:00:06.816Z,19.62
2023-05-18T16:02:38.980Z,19.18
2023-05-18T16:05:08.224Z,18.35
2023-05-18T16:07:35.436Z,17.98
2023-05-18T16:10:02.771Z,17.88
2023-05-18T16:12:30.047Z,18.07
2023-05-18T16:14:57.418Z,17.84
2023-05-18T16:17:24.769Z,17.60
2023-05-18T16:19:52.005Z,17.45
2023-05-18T16:22:20.581Z,17.62
2023-05-18T16:24:47.789Z,17.81
2023-05-18T16:27:14.979Z,17.57
2023-05-18T16:29:42.249Z,17.29
2023-05-18T16:32:09.495Z,17.09
2023-05-18T16:34:36.806Z,17.29
2023-05-18T16:37:04.292Z,16.92
2023-05-18T16:39:32.877Z,16.98
2023-05-18T16:42:00.154Z,16.74
2023-05-18T16:44:27.386Z,16.70
2023-05-18T16:46:54.640Z,16.75
2023-05-18T16:49:21.829Z,16.74
2023-05-18T16:51:49.073Z,16.64
2023-05-18T16:54:16.263Z,16.45
2023-05-18T16:56:44.888Z,16.37
2023-05-18T16:59:12.119Z,16.26
2023-05-18T17:01:39.357Z,16.25
2023-05-18T17:04:06.713Z,16.34
2023-05-18T17:06:34.024Z,16.24
2023-05-18T17:09:01.254Z,16.30
2023-05-18T17:11:28.473Z,16.47
2023-05-18T17:13:57.058Z,16.59
2023-05-18T17:16:24.377Z,16.61
2023-05-18T17:18:51.701Z,16.31
2023-05-18T17:21:18.941Z,16.31
2023-05-18T17:23:46.186Z,16.48
2023-05-18T17:26:13.480Z,16.08
2023-05-18T17:28:40.701Z,16.02
2023-05-18T17:31:09.304Z,15.85
2023-05-18T17:33:36.624Z,15.81
2023-05-18T17:36:04.349Z,15.81
2023-05-18T17:38:31.570Z,15.85
2023-05-18T17:40:58.768Z,15.79
2023-05-18T17:43:26.011Z,15.86
2023-05-18T17:45:53.261Z,15.79
2023-05-18T17:48:21.874Z,15.64
2023-05-18T17:50:49.138Z,15.59
2023-05-18T17:53:16.327Z,15.45
2023-05-18T17:55:43.583Z,15.38
2023-05-18T17:58:10.808Z,15.28
2023-05-18T18:00:38.200Z,15.25
2023-05-18T18:03:05.618Z,15.25
2023-05-18T18:05:34.892Z,15.15
2023-05-18T18:08:02.329Z,15.05
2023-05-18T18:10:29.803Z,14.98
2023-05-18T18:12:57.343Z,14.93
2023-05-18T18:15:24.547Z,14.91
2023-05-18T18:17:51.817Z,14.77
2023-05-18T18:20:19.264Z,14.73
2023-05-18T18:22:47.861Z,14.55
2023-05-18T18:25:15.137Z,14.52
2023-05-18T18:27:42.344Z,14.41
2023-05-18T18:30:10.412Z,14.43
2023-05-18T18:32:37.675Z,14.34
2023-05-18T18:35:05.705Z,14.28
2023-05-18T18:37:32.908Z,14.22
2023-05-18T18:40:01.512Z,14.15
2023-05-18T18:42:28.781Z,14.11
2023-05-18T18:44:56.072Z,14.03
2023-05-18T18:47:23.360Z,13.93
2023-05-18T18:49:50.618Z,13.84
2023-05-18T18:52:17.882Z,13.82
2023-05-18T18:54:45.227Z,13.78
2023-05-18T18:57:13.818Z,13.66
2023-05-18T18:59:41.033Z,13.55
2023-05-18T19:02:08.277Z,13.51
2023-05-18T19:04:35.617Z,13.39
2023-05-18T19:07:02.930Z,13.22
2023-05-18T19:09:31.169Z,13.20
2023-05-18T19:11:58.539Z,13.19
2023-05-18T19:14:27.300Z,13.13
2023-05-18T19:16:54.697Z,13.10
2023-05-18T19:19:22.005Z,12.98
2023-05-18T19:21:49.258Z,12.86
2023-05-18T19:24:16.500Z,12.85
2023-05-18T19:26:43.710Z,12.73
2023-05-18T19:29:10.979Z,12.65
2023-05-18T19:31:39.737Z,12.68
2023-05-18T19:34:07.111Z,12.56
2023-05-18T19:36:34.308Z,12.51
2023-05-18T19:39:01.537Z,12.37
2023-05-18T19:41:28.775Z,12.37
2023-05-18T19:43:55.968Z,12.26
2023-05-18T19:46:23.315Z,12.22
2023-05-18T19:48:52.362Z,12.17
2023-05-18T19:51:20.862Z,12.13
2023-05-18T19:53:48.059Z,12.05
2023-05-18T19:56:15.315Z,11.86
2023-05-18T19:58:43.059Z,11.76
2023-05-18T20:01:10.366Z,11.61
2023-05-18T20:03:39.100Z,11.56
2023-05-18T20:06:09.477Z,11.38
2023-05-18T20:08:36.704Z,11.36
2023-05-18T20:11:04.004Z,11.24
2023-05-18T20:13:31.285Z,11.27
2023-05-18T20:15:58.542Z,11.25
2023-05-18T20:18:25.900Z,11.29
2023-05-18T20:20:53.128Z,11.36
2023-05-18T20:23:21.979Z,11.36
2023-05-18T20:25:49.315Z,11.36
2023-05-18T20:28:16.562Z,11.22
2023-05-18T20:30:43.763Z,11.17
2023-05-18T20:33:11.113Z,11.09
2023-05-18T20:35:38.837Z,11.01
2023-05-18T20:38:06.113Z,10.84
2023-05-18T20:40:34.855Z,10.82
2023-05-18T20:43:02.236Z,10.72
2023-05-18T20:45:29.438Z,10.62
2023-05-18T20:47:57.299Z,10.60
2023-05-18T20:50:24.630Z,10.48
2023-05-18T20:52:52.476Z,10.44
2023-05-18T20:55:19.879Z,10.40
2023-05-18T20:57:48.419Z,10.33
2023-05-18T21:00:16.991Z,10.29
2023-05-18T21:02:45.711Z,10.23
2023-05-18T21:05:13.684Z,10.17
2023-05-18T21:07:40.889Z,10.08
2023-05-18T21:10:09.295Z,10.01
2023-05-18T21:12:37.102Z,9.96
2023-05-18T21:15:06.993Z,9.92
2023-05-18T21:17:34.480Z,9.79
2023-05-18T21:20:01.765Z,9.76
2023-05-18T21:22:28.987Z,9.72
2023-05-18T21:24:56.186Z,9.63
2023-05-18T21:27:23.475Z,9.65
2023-05-18T21:29:50.713Z,9.48
2023-05-18T21:32:19.427Z,9.48
2023-05-18T21:34:46.728Z,9.42
2023-05-18T21:37:15.082Z,9.42
2023-05-18T21:39:42.304Z,9.45
2023-05-18T21:42:09.481Z,9.40
2023-05-18T21:44:36.694Z,9.34
2023-05-18T21:47:04.088Z,9.32
2023-05-18T21:49:32.672Z,9.33
2023-05-18T21:51:59.889Z,9.34
2023-05-18T21:54:27.085Z,9.35
2023-05-18T21:56:54.325Z,9.33
2023-05-18T21:59:21.543Z,9.23
2023-05-18T22:01:48.706Z,9.28
2023-05-18T22:04:16.537Z,9.34
2023-05-18T22:06:45.175Z,9.29
2023-05-18T22:09:12.394Z,9.27
2023-05-18T22:11:39.600Z,9.23
2023-05-18T22:14:06.834Z,9.25
2023-05-18T22:16:34.070Z,9.15
2023-05-18T22:19:01.370Z,8.90
2023-05-18T22:21:28.598Z,8.81
2023-05-18T22:23:57.178Z,8.81
2023-05-18T22:26:24.410Z,8.80
2023-05-18T22:28:51.619Z,8.73
2023-05-18T22:31:18.907Z,8.70
2023-05-18T22:33:46.119Z,8.63
2023-05-18T22:36:13.338Z,8.60
2023-05-18T22:38:40.538Z,8.61
2023-05-18T22:41:09.268Z,8.59
2023-05-18T22:43:36.509Z,8.58
2023-05-18T22:46:03.782Z,8.56
2023-05-18T22:48:31.056Z,8.51
2023-05-18T22:50:58.221Z,8.54
2023-05-18T22:53:25.419Z,8.53
2023-05-18T22:55:52.682Z,8.49
2023-05-18T22:58:21.238Z,8.39
2023-05-18T23:00:48.552Z,8.43
2023-05-18T23:03:15.815Z,8.34
2023-05-18T23:05:43.391Z,8.36
2023-05-18T23:08:10.645Z,8.40
2023-05-18T23:10:37.828Z,8.32
2023-05-18T23:13:05.012Z,8.35
2023-05-18T23:15:33.654Z,8.32
2023-05-18T23:18:02.146Z,8.25
2023-05-18T23:20:29.738Z,8.20
2023-05-18T23:22:57.093Z,8.10
2023-05-18T23:25:24.328Z,8.06
2023-05-18T23:27:51.561Z,8.00
2023-05-18T23:30:18.822Z,8.01
2023-05-18T23:32:48.330Z,8.00
2023-05-18T23:35:16.861Z,7.98
2023-05-18T23:37:48.128Z,7.99
2023-05-18T23:40:18.046Z,7.99
2023-05-18T23:42:45.830Z,7.93
2023-05-18T23:45:14.296Z,7.80
2023-05-18T23:47:42.078Z,7.82
2023-05-18T23:50:12.092Z,7.74
2023-05-18T23:52:40.989Z,7.72
2023-05-18T23:55:11.494Z,7.70
2023-05-18T23:57:39.226Z,7.65
